createdAt,value
2019-04-21T00:00:16.794Z,6.60
2019-04-21T00:00:54.254Z,7.30
2019-04-21T00:01:26.409Z,7.03
2019-04-21T00:01:59.664Z,7.55
2019-04-21T00:02:36.392Z,7.72
2019-04-21T00:03:15.212Z,6.90
2019-04-21T00:03:50.155Z,8.60
2019-04-21T00:04:30.043Z,7.78
2019-04-21T00:05:10.854Z,7.47
2019-04-21T00:05:48.482Z,7.60
2019-04-21T00:06:28.467Z,7.22
2019-04-21T00:06:56.964Z,8.65
2019-04-21T00:07:31.905Z,8.30
2019-04-21T00:08:10.848Z,8.65
2019-04-21T00:08:45.850Z,8.90
2019-04-21T00:09:19.188Z,9.70
2019-04-21T00:10:04.051Z,9.50
2019-04-21T00:10:28.229Z,11.10
2019-04-21T00:11:04.605Z,12.80
2019-04-21T00:11:37.662Z,12.93
2019-04-21T00:12:11.390Z,13.85
2019-04-21T00:12:40.848Z,12.58
2019-04-21T00:13:12.381Z,12.63
2019-04-21T00:13:46.716Z,10.68
2019-04-21T00:14:19.977Z,9.80
2019-04-21T00:14:49.719Z,8.38
2019-04-21T00:15:29.117Z,9.05
2019-04-21T00:15:54.940Z,8.15
2019-04-21T00:16:34.700Z,7.22
2019-04-21T00:17:07.853Z,6.80
2019-04-21T00:17:35.087Z,5.58
2019-04-21T00:18:19.164Z,7.03
2019-04-21T00:19:12.983Z,6.45
2019-04-21T00:19:55.468Z,5.65
2019-04-21T00:20:35.489Z,6.83
2019-04-21T00:21:12.147Z,8.18
2019-04-21T00:21:43.243Z,7.30
2019-04-21T00:22:24.781Z,7.60
2019-04-21T00:22:58.590Z,6.03
2019-04-21T00:23:39.547Z,5.58
2019-04-21T00:24:23.928Z,5.00
2019-04-21T00:24:58.387Z,5.47
2019-04-21T00:25:32.283Z,4.80
2019-04-21T00:26:06.710Z,4.80
2019-04-21T00:26:50.805Z,4.85
2019-04-21T00:27:20.227Z,4.00
2019-04-21T00:27:51.634Z,4.15
2019-04-21T00:28:36.644Z,3.60
2019-04-21T00:29:09.650Z,4.25
2019-04-21T00:30:19.671Z,4.10
2019-04-21T00:30:50.838Z,4.40
2019-04-21T00:31:24.699Z,4.70
2019-04-21T00:31:56.341Z,4.97
2019-04-21T00:32:29.281Z,4.58
2019-04-21T00:32:56.313Z,4.08
2019-04-21T00:33:29.942Z,4.53
2019-04-21T00:33:58.309Z,4.87
2019-04-21T00:34:32.163Z,5.05
2019-04-21T00:35:11.774Z,4.85
2019-04-21T00:35:48.689Z,5.40
2019-04-21T00:36:20.599Z,4.95
2019-04-21T00:36:59.943Z,4.40
2019-04-21T00:37:42.597Z,4.67
2019-04-21T00:38:19.598Z,4.95
2019-04-21T00:39:09.886Z,4.25
2019-04-21T00:39:36.947Z,4.75
2019-04-21T00:40:06.474Z,5.15
2019-04-21T00:40:43.248Z,5.72
2019-04-21T00:41:23.511Z,5.87
2019-04-21T00:41:48.434Z,5.10
2019-04-21T00:42:24.111Z,4.90
2019-04-21T00:42:58.807Z,5.35
2019-04-21T00:43:28.432Z,5.70
2019-04-21T00:44:00.772Z,5.17
2019-04-21T00:44:33.024Z,5.62
2019-04-21T00:45:12.067Z,6.22
2019-04-21T00:45:43.425Z,5.30
2019-04-21T00:46:17.475Z,5.70
2019-04-21T00:46:55.806Z,5.00
2019-04-21T00:47:34.120Z,5.15
2019-04-21T00:48:13.670Z,5.20
2019-04-21T00:48:49.303Z,5.15
2019-04-21T00:49:15.259Z,5.37
2019-04-21T00:49:59.120Z,5.37
2019-04-21T00:50:49.906Z,5.30
2019-04-21T00:52:00.542Z,5.47
2019-04-21T00:52:52.543Z,4.95
2019-04-21T00:53:32.122Z,4.85
2019-04-21T00:54:04.415Z,5.05
2019-04-21T00:54:44.435Z,5.05
2019-04-21T00:55:40.061Z,4.80
2019-04-21T00:56:15.642Z,5.20
2019-04-21T00:56:52.161Z,4.75
2019-04-21T00:57:27.137Z,5.15
2019-04-21T00:57:58.494Z,5.17
2019-04-21T00:59:05.792Z,5.00
2019-04-21T00:59:41.990Z,4.60
2019-04-21T01:00:14.205Z,5.08
2019-04-21T01:00:51.313Z,4.85
2019-04-21T01:01:22.267Z,4.60
2019-04-21T01:01:55.585Z,4.55
2019-04-21T01:02:43.677Z,4.95
2019-04-21T01:03:09.596Z,4.30
2019-04-21T01:03:47.411Z,4.40
2019-04-21T01:04:20.655Z,4.75
2019-04-21T01:04:53.342Z,5.22
2019-04-21T01:05:28.327Z,5.78
2019-04-21T01:06:04.119Z,5.08
2019-04-21T01:06:35.216Z,4.33
2019-04-21T01:07:09.335Z,4.35
2019-04-21T01:07:42.377Z,4.58
2019-04-21T01:08:13.330Z,4.60
2019-04-21T01:08:53.209Z,5.12
2019-04-21T01:09:27.851Z,5.05
2019-04-21T01:09:58.714Z,4.65
2019-04-21T01:10:32.057Z,4.25
2019-04-21T01:11:16.511Z,4.67
2019-04-21T01:11:50.560Z,4.45
2019-04-21T01:12:31.507Z,4.85
2019-04-21T01:13:02.747Z,4.72
2019-04-21T01:13:38.316Z,4.55
2019-04-21T01:14:16.650Z,4.78
2019-04-21T01:14:49.976Z,4.50
2019-04-21T01:15:24.635Z,4.33
2019-04-21T01:15:54.632Z,3.95
2019-04-21T01:16:45.322Z,4.30
2019-04-21T01:17:18.694Z,4.60
2019-04-21T01:17:51.610Z,4.30
2019-04-21T01:18:31.388Z,4.75
2019-04-21T01:19:00.784Z,4.08
2019-04-21T01:19:33.662Z,4.37
2019-04-21T01:20:01.409Z,4.35
2019-04-21T01:20:22.878Z,4.83
2019-04-21T01:20:55.519Z,4.03
2019-04-21T01:21:28.213Z,4.60
2019-04-21T01:22:01.518Z,4.65
2019-04-21T01:22:34.147Z,4.80
2019-04-21T01:23:06.794Z,4.53
2019-04-21T01:23:40.303Z,4.83
2019-04-21T01:24:19.790Z,5.22
2019-04-21T01:24:57.955Z,5.33
2019-04-21T01:25:30.242Z,4.75
2019-04-21T01:26:13.322Z,5.03
2019-04-21T01:26:43.792Z,5.05
2019-04-21T01:27:15.926Z,4.75
2019-04-21T01:27:53.690Z,4.25
2019-04-21T01:28:28.982Z,4.45
2019-04-21T01:29:05.428Z,4.80
2019-04-21T01:29:46.564Z,4.72
2019-04-21T01:30:18.933Z,4.50
2019-04-21T01:30:53.549Z,4.58
2019-04-21T01:31:23.017Z,4.97
2019-04-21T01:32:12.805Z,4.90
2019-04-21T01:32:42.637Z,4.75
2019-04-21T01:33:12.396Z,4.80
2019-04-21T01:33:50.964Z,4.80
2019-04-21T01:34:27.504Z,5.08
2019-04-21T01:34:58.356Z,4.70
2019-04-21T01:35:35.228Z,3.95
2019-04-21T01:36:04.177Z,4.42
2019-04-21T01:36:39.019Z,4.17
2019-04-21T01:37:10.332Z,4.40
2019-04-21T01:37:49.487Z,3.92
2019-04-21T01:38:31.638Z,4.28
2019-04-21T01:39:00.969Z,4.92
2019-04-21T01:39:39.439Z,5.30
2019-04-21T01:40:11.950Z,5.22
2019-04-21T01:40:45.070Z,5.42
2019-04-21T01:41:21.543Z,3.95
2019-04-21T01:41:50.813Z,4.60
2019-04-21T01:42:28.591Z,4.97
2019-04-21T01:42:56.728Z,5.50
2019-04-21T01:43:38.419Z,5.00
2019-04-21T01:44:04.959Z,5.03
2019-04-21T01:44:46.192Z,4.65
2019-04-21T01:45:14.661Z,4.87
2019-04-21T01:45:49.161Z,5.35
2019-04-21T01:46:28.387Z,5.53
2019-04-21T01:46:58.730Z,5.70
2019-04-21T01:47:31.459Z,6.10
2019-04-21T01:48:05.793Z,4.80
2019-04-21T01:48:39.152Z,4.83
2019-04-21T01:49:11.863Z,5.33
2019-04-21T01:49:43.245Z,5.70
2019-04-21T01:50:30.051Z,5.20
2019-04-21T01:51:04.378Z,5.70
2019-04-21T01:51:46.814Z,6.33
2019-04-21T01:52:24.793Z,5.75
2019-04-21T01:53:00.587Z,7.30
2019-04-21T01:53:39.526Z,6.50
2019-04-21T01:54:35.165Z,5.97
2019-04-21T01:55:18.488Z,5.55
2019-04-21T01:56:04.853Z,5.53
2019-04-21T01:57:01.959Z,6.72
2019-04-21T01:57:54.052Z,6.03
2019-04-21T01:58:25.696Z,5.58
2019-04-21T01:58:56.199Z,5.60
2019-04-21T01:59:39.505Z,6.30
2019-04-21T02:00:12.561Z,6.28
2019-04-21T02:00:59.598Z,6.72
2019-04-21T02:01:38.842Z,6.58
2019-04-21T02:02:16.016Z,6.15
2019-04-21T02:02:44.872Z,6.37
2019-04-21T02:03:41.668Z,6.00
2019-04-21T02:03:56.855Z,5.67
2019-04-21T02:04:36.721Z,6.20
2019-04-21T02:05:14.540Z,5.65
2019-04-21T02:05:46.638Z,5.80
2019-04-21T02:06:18.133Z,6.72
2019-04-21T02:06:50.219Z,6.35
2019-04-21T02:07:20.614Z,6.50
2019-04-21T02:07:58.035Z,6.65
2019-04-21T02:08:28.799Z,6.22
2019-04-21T02:09:06.808Z,5.45
2019-04-21T02:09:58.850Z,6.22
2019-04-21T02:10:21.124Z,5.22
2019-04-21T02:10:54.644Z,5.25
2019-04-21T02:11:24.538Z,5.80
2019-04-21T02:12:03.719Z,6.20
2019-04-21T02:12:34.502Z,5.75
2019-04-21T02:13:03.572Z,6.62
2019-04-21T02:13:50.217Z,6.72
2019-04-21T02:14:20.767Z,7.87
2019-04-21T02:15:03.216Z,7.47
2019-04-21T02:15:31.111Z,7.85
2019-04-21T02:16:01.672Z,7.95
2019-04-21T02:16:35.611Z,8.85
2019-04-21T02:17:13.319Z,7.47
2019-04-21T02:17:45.314Z,5.83
2019-04-21T02:18:19.099Z,6.08
2019-04-21T02:18:53.098Z,5.37
2019-04-21T02:19:23.411Z,5.42
2019-04-21T02:19:55.136Z,5.25
2019-04-21T02:20:30.429Z,4.90
2019-04-21T02:21:00.105Z,4.72
2019-04-21T02:21:39.297Z,4.92
2019-04-21T02:22:20.826Z,4.78
2019-04-21T02:23:10.270Z,4.87
2019-04-21T02:24:17.101Z,4.95
2019-04-21T02:24:49.683Z,5.90
2019-04-21T02:25:16.609Z,5.20
2019-04-21T02:25:52.358Z,4.72
2019-04-21T02:26:22.586Z,5.97
2019-04-21T02:26:59.519Z,5.47
2019-04-21T02:27:54.716Z,5.30
2019-04-21T02:28:16.490Z,6.10
2019-04-21T02:28:50.032Z,6.00
2019-04-21T02:29:24.529Z,5.90
2019-04-21T02:29:55.453Z,6.30
2019-04-21T02:30:36.209Z,6.20
2019-04-21T02:31:54.264Z,5.47
2019-04-21T02:33:02.891Z,5.67
2019-04-21T02:34:40.912Z,5.78
2019-04-21T02:35:22.490Z,5.87
2019-04-21T02:36:32.593Z,5.55
2019-04-21T02:36:58.627Z,5.12
2019-04-21T02:37:17.155Z,5.92
2019-04-21T02:38:11.957Z,5.17
2019-04-21T02:38:48.721Z,5.15
2019-04-21T02:39:35.564Z,4.67
2019-04-21T02:39:57.026Z,5.20
2019-04-21T02:40:36.238Z,5.05
2019-04-21T02:42:46.421Z,4.78
2019-04-21T02:43:18.741Z,5.30
2019-04-21T02:44:32.744Z,4.50
2019-04-21T02:44:59.828Z,5.30
2019-04-21T02:46:19.426Z,5.65
2019-04-21T02:47:31.238Z,5.28
2019-04-21T02:48:06.906Z,4.45
2019-04-21T02:48:28.243Z,4.78
2019-04-21T02:49:11.232Z,5.35
2019-04-21T02:49:45.612Z,5.47
2019-04-21T02:50:25.908Z,4.95
2019-04-21T02:51:28.148Z,5.03
2019-04-21T02:52:01.700Z,5.35
2019-04-21T02:52:40.678Z,5.20
2019-04-21T02:53:09.632Z,4.72
2019-04-21T02:55:17.951Z,4.67
2019-04-21T02:55:22.323Z,5.22
2019-04-21T02:56:34.067Z,5.35
2019-04-21T02:57:09.308Z,5.28
2019-04-21T02:57:43.880Z,4.90
2019-04-21T02:58:25.512Z,5.30
2019-04-21T02:59:02.454Z,4.90
2019-04-21T03:01:14.540Z,5.15
2019-04-21T03:02:22.769Z,5.62
2019-04-21T03:03:29.801Z,4.75
2019-04-21T03:04:32.107Z,4.05
2019-04-21T03:05:20.378Z,4.78
2019-04-21T03:06:25.175Z,4.95
2019-04-21T03:07:09.649Z,5.12
2019-04-21T03:07:34.685Z,5.20
2019-04-21T03:08:14.751Z,5.10
2019-04-21T03:08:54.401Z,5.10
2019-04-21T03:09:24.333Z,5.22
2019-04-21T03:09:53.585Z,5.35
2019-04-21T03:10:39.035Z,4.22
2019-04-21T03:11:40.239Z,5.20
2019-04-21T03:12:22.709Z,5.03
2019-04-21T03:12:46.948Z,5.08
2019-04-21T03:13:29.905Z,5.10
2019-04-21T03:14:11.186Z,5.95
2019-04-21T03:14:46.491Z,5.55
2019-04-21T03:16:43.031Z,5.17
2019-04-21T03:17:35.863Z,5.30
2019-04-21T03:18:06.463Z,5.53
2019-04-21T03:18:39.903Z,5.37
2019-04-21T03:19:15.581Z,4.80
2019-04-21T03:20:23.964Z,4.10
2019-04-21T03:21:01.224Z,5.12
2019-04-21T03:22:06.762Z,4.62
2019-04-21T03:22:32.242Z,4.87
2019-04-21T03:23:54.123Z,4.85
2019-04-21T03:24:17.552Z,4.80
2019-04-21T03:26:10.267Z,4.65
2019-04-21T03:28:22.630Z,5.35
2019-04-21T03:29:03.650Z,4.40
2019-04-21T03:30:19.929Z,5.05
2019-04-21T03:31:50.976Z,4.70
2019-04-21T03:32:14.461Z,5.08
2019-04-21T03:35:19.299Z,4.80
2019-04-21T03:35:49.443Z,4.60
2019-04-21T03:36:52.773Z,4.58
2019-04-21T03:38:16.584Z,5.37
2019-04-21T03:39:21.657Z,4.87
2019-04-21T03:41:04.222Z,4.70
2019-04-21T03:41:39.683Z,5.05
2019-04-21T03:42:21.530Z,5.33
2019-04-21T03:43:20.893Z,5.22
2019-04-21T03:44:32.332Z,5.30
2019-04-21T03:45:06.990Z,4.97
2019-04-21T03:45:39.202Z,4.53
2019-04-21T03:46:16.349Z,4.45
2019-04-21T03:46:52.660Z,4.40
2019-04-21T03:47:24.898Z,4.53
2019-04-21T03:47:57.106Z,4.95
2019-04-21T03:49:11.846Z,4.80
2019-04-21T03:49:47.368Z,4.72
2019-04-21T03:50:18.820Z,4.95
2019-04-21T03:51:02.668Z,5.08
2019-04-21T03:51:35.866Z,4.42
2019-04-21T03:52:03.818Z,5.15
2019-04-21T03:52:38.766Z,4.37
2019-04-21T03:53:14.041Z,4.95
2019-04-21T03:53:39.940Z,4.85
2019-04-21T03:54:18.509Z,4.60
2019-04-21T03:56:53.356Z,4.85
2019-04-21T03:58:00.330Z,5.40
2019-04-21T03:58:59.822Z,5.20
2019-04-21T03:59:16.549Z,4.25
2019-04-21T04:00:08.568Z,5.00
2019-04-21T04:01:00.000Z,4.80
2019-04-21T04:01:48.855Z,4.85
2019-04-21T04:02:34.398Z,4.90
2019-04-21T04:04:47.517Z,4.60
2019-04-21T04:05:21.469Z,5.53
2019-04-21T04:08:09.030Z,4.78
2019-04-21T04:09:12.312Z,4.55
2019-04-21T04:09:41.793Z,4.70
2019-04-21T04:10:08.059Z,5.60
2019-04-21T04:10:58.697Z,4.92
2019-04-21T04:11:31.575Z,5.10
2019-04-21T04:12:23.104Z,5.25
2019-04-21T04:13:05.403Z,4.90
2019-04-21T04:13:53.412Z,5.20
2019-04-21T04:14:20.344Z,5.53
2019-04-21T04:14:48.043Z,5.72
2019-04-21T04:15:34.605Z,5.20
2019-04-21T04:16:03.797Z,5.10
2019-04-21T04:16:29.453Z,5.35
2019-04-21T04:17:32.583Z,4.85
2019-04-21T04:18:22.429Z,4.78
2019-04-21T04:19:26.342Z,4.95
2019-04-21T04:19:56.154Z,5.10
2019-04-21T04:20:43.826Z,5.83
2019-04-21T04:21:19.923Z,6.05
2019-04-21T04:21:48.905Z,5.03
2019-04-21T04:23:37.487Z,5.20
2019-04-21T04:24:07.191Z,5.17
2019-04-21T04:25:09.635Z,5.55
2019-04-21T04:25:43.034Z,4.95
2019-04-21T04:29:12.294Z,5.30
2019-04-21T04:29:40.103Z,5.12
2019-04-21T04:30:27.639Z,5.85
2019-04-21T04:30:56.339Z,5.33
2019-04-21T04:31:57.105Z,5.50
2019-04-21T04:32:36.760Z,5.08
2019-04-21T04:33:20.371Z,5.10
2019-04-21T04:34:04.477Z,5.47
2019-04-21T04:34:22.007Z,5.42
2019-04-21T04:34:59.185Z,5.15
2019-04-21T04:35:34.161Z,5.47
2019-04-21T04:36:13.074Z,5.40
2019-04-21T04:38:03.284Z,5.65
2019-04-21T04:38:32.410Z,5.15
2019-04-21T04:40:34.650Z,4.60
2019-04-21T04:41:26.553Z,5.60
2019-04-21T04:43:11.930Z,5.95
2019-04-21T04:44:33.785Z,5.12
2019-04-21T04:45:10.178Z,5.40
2019-04-21T04:46:15.705Z,6.10
2019-04-21T04:46:47.534Z,4.50
2019-04-21T04:47:50.006Z,5.67
2019-04-21T04:48:23.657Z,5.58
2019-04-21T04:49:02.430Z,5.42
2019-04-21T04:50:01.927Z,4.25
2019-04-21T04:51:22.986Z,5.25
2019-04-21T04:52:19.287Z,5.80
2019-04-21T04:52:32.535Z,5.42
2019-04-21T04:52:56.825Z,5.75
2019-04-21T04:53:44.247Z,5.83
2019-04-21T04:54:06.727Z,5.83
2019-04-21T04:54:55.470Z,5.28
2019-04-21T04:55:29.611Z,4.95
2019-04-21T04:56:01.758Z,5.78
2019-04-21T04:56:34.579Z,5.80
2019-04-21T04:57:19.526Z,5.42
2019-04-21T04:57:47.039Z,5.45
2019-04-21T04:58:22.169Z,5.60
2019-04-21T05:00:34.877Z,5.50
2019-04-21T05:01:17.091Z,5.40
2019-04-21T05:02:00.191Z,4.62
2019-04-21T05:02:52.400Z,4.85
2019-04-21T05:03:37.328Z,5.80
2019-04-21T05:07:00.000Z,5.78
2019-04-21T05:07:35.253Z,5.17
2019-04-21T05:08:08.587Z,4.78
2019-04-21T05:08:52.976Z,4.90
2019-04-21T05:09:15.160Z,4.87
2019-04-21T05:09:59.393Z,5.15
2019-04-21T05:10:29.834Z,4.30
2019-04-21T05:11:07.753Z,5.10
2019-04-21T05:12:01.973Z,4.45
2019-04-21T05:12:36.488Z,4.60
2019-04-21T05:13:24.191Z,4.85
2019-04-21T05:13:55.876Z,4.67
2019-04-21T05:14:21.512Z,5.15
2019-04-21T05:15:04.832Z,5.05
2019-04-21T05:15:23.928Z,4.70
2019-04-21T05:16:11.253Z,4.40
2019-04-21T05:16:46.358Z,4.67
2019-04-21T05:17:30.900Z,4.87
2019-04-21T05:17:50.902Z,4.60
2019-04-21T05:18:34.530Z,5.00
2019-04-21T05:19:42.861Z,4.83
2019-04-21T05:20:13.352Z,5.58
2019-04-21T05:20:57.492Z,4.80
2019-04-21T05:21:30.159Z,3.87
2019-04-21T05:21:54.725Z,4.95
2019-04-21T05:22:59.809Z,4.87
2019-04-21T05:23:31.302Z,4.25
2019-04-21T05:24:01.382Z,4.30
2019-04-21T05:24:40.580Z,5.53
2019-04-21T05:25:15.585Z,4.55
2019-04-21T05:25:47.668Z,5.70
2019-04-21T05:26:18.940Z,4.85
2019-04-21T05:26:58.387Z,4.45
2019-04-21T05:27:46.905Z,5.70
2019-04-21T05:28:19.775Z,4.60
2019-04-21T05:28:55.495Z,3.90
2019-04-21T05:29:55.529Z,5.58
2019-04-21T05:30:50.111Z,4.97
2019-04-21T05:31:56.769Z,4.97
2019-04-21T05:33:01.307Z,4.53
2019-04-21T05:33:38.018Z,4.45
2019-04-21T05:34:18.959Z,4.87
2019-04-21T05:35:00.184Z,4.37
2019-04-21T05:35:55.968Z,5.40
2019-04-21T05:37:10.708Z,4.42
2019-04-21T05:38:03.114Z,4.75
2019-04-21T05:38:53.284Z,4.83
2019-04-21T05:39:37.958Z,5.03
2019-04-21T05:40:22.210Z,4.45
2019-04-21T05:41:02.159Z,4.90
2019-04-21T05:41:31.969Z,4.85
2019-04-21T05:42:08.132Z,4.60
2019-04-21T05:42:45.553Z,5.62
2019-04-21T05:43:29.580Z,4.55
2019-04-21T05:43:56.534Z,4.65
2019-04-21T05:44:41.996Z,4.55
2019-04-21T05:45:29.696Z,5.67
2019-04-21T05:45:47.768Z,5.22
2019-04-21T05:46:18.390Z,5.45
2019-04-21T05:47:03.820Z,4.05
2019-04-21T05:47:35.389Z,4.80
2019-04-21T05:48:52.568Z,5.60
2019-04-21T05:49:47.603Z,4.55
2019-04-21T05:50:19.214Z,5.17
2019-04-21T05:50:53.779Z,4.90
2019-04-21T05:51:25.365Z,4.92
2019-04-21T05:51:59.794Z,4.50
2019-04-21T05:52:53.698Z,4.92
2019-04-21T05:54:19.310Z,5.05
2019-04-21T05:54:44.124Z,4.65
2019-04-21T05:55:22.268Z,4.83
2019-04-21T05:55:49.284Z,4.55
2019-04-21T05:56:22.979Z,5.40
2019-04-21T05:57:01.138Z,5.00
2019-04-21T05:57:33.626Z,4.53
2019-04-21T05:58:08.397Z,5.50
2019-04-21T05:58:43.979Z,4.65
2019-04-21T05:59:15.175Z,5.47
2019-04-21T05:59:51.492Z,5.22
2019-04-21T06:00:50.278Z,4.97
2019-04-21T06:01:47.113Z,5.25
2019-04-21T06:02:23.626Z,5.25
2019-04-21T06:02:57.769Z,4.80
2019-04-21T06:03:34.272Z,5.85
2019-04-21T06:04:03.629Z,5.60
2019-04-21T06:04:54.880Z,5.58
2019-04-21T06:05:35.138Z,4.95
2019-04-21T06:05:55.558Z,5.30
2019-04-21T06:06:20.709Z,5.60
2019-04-21T06:06:56.814Z,4.85
2019-04-21T06:07:28.751Z,5.20
2019-04-21T06:08:09.946Z,5.60
2019-04-21T06:08:37.297Z,5.45
2019-04-21T06:09:15.743Z,5.83
2019-04-21T06:10:27.339Z,5.28
2019-04-21T06:11:05.424Z,4.97
2019-04-21T06:11:30.547Z,5.17
2019-04-21T06:12:08.927Z,5.78
2019-04-21T06:12:57.858Z,4.87
2019-04-21T06:14:08.152Z,5.25
2019-04-21T06:14:30.835Z,6.00
2019-04-21T06:15:01.123Z,4.78
2019-04-21T06:15:39.047Z,5.45
2019-04-21T06:16:07.254Z,5.45
2019-04-21T06:16:48.253Z,5.70
2019-04-21T06:17:25.247Z,5.30
2019-04-21T06:17:57.878Z,4.95
2019-04-21T06:18:38.339Z,5.30
2019-04-21T06:19:22.574Z,4.60
2019-04-21T06:19:46.763Z,5.62
2019-04-21T06:20:15.453Z,5.65
2019-04-21T06:20:51.510Z,5.67
2019-04-21T06:21:22.219Z,5.42
2019-04-21T06:21:51.608Z,5.92
2019-04-21T06:22:28.880Z,5.17
2019-04-21T06:23:04.787Z,5.35
2019-04-21T06:23:41.215Z,4.95
2019-04-21T06:24:15.970Z,5.65
2019-04-21T06:25:11.068Z,4.80
2019-04-21T06:25:48.946Z,6.17
2019-04-21T06:26:19.751Z,5.28
2019-04-21T06:26:51.792Z,6.42
2019-04-21T06:27:11.597Z,5.70
2019-04-21T06:28:00.104Z,5.90
2019-04-21T06:28:27.083Z,5.60
2019-04-21T06:29:02.755Z,6.00
2019-04-21T06:29:28.630Z,6.17
2019-04-21T06:30:00.209Z,5.53
2019-04-21T06:30:43.945Z,5.80
2019-04-21T06:31:21.666Z,5.85
2019-04-21T06:32:35.905Z,6.08
2019-04-21T06:32:59.743Z,5.10
2019-04-21T06:33:44.684Z,5.92
2019-04-21T06:34:06.752Z,5.47
2019-04-21T06:34:51.840Z,5.10
2019-04-21T06:36:11.316Z,6.08
2019-04-21T06:36:41.404Z,5.78
2019-04-21T06:37:41.792Z,6.67
2019-04-21T06:37:59.894Z,5.50
2019-04-21T06:39:42.266Z,5.58
2019-04-21T06:40:42.267Z,6.67
2019-04-21T06:41:21.552Z,6.10
2019-04-21T06:41:49.013Z,6.22
2019-04-21T06:42:18.403Z,6.90
2019-04-21T06:43:16.313Z,6.20
2019-04-21T06:43:40.411Z,5.62
2019-04-21T06:44:12.947Z,6.30
2019-04-21T06:44:48.543Z,6.47
2019-04-21T06:45:20.080Z,6.20
2019-04-21T06:45:55.661Z,5.85
2019-04-21T06:46:33.291Z,6.30
2019-04-21T06:47:07.704Z,6.47
2019-04-21T06:47:47.781Z,6.55
2019-04-21T06:48:22.497Z,6.42
2019-04-21T06:48:53.773Z,6.03
2019-04-21T06:49:18.763Z,6.83
2019-04-21T06:49:55.307Z,6.37
2019-04-21T06:50:39.862Z,6.25
2019-04-21T06:51:13.732Z,5.95
2019-04-21T06:51:54.802Z,6.45
2019-04-21T06:52:32.889Z,5.67
2019-04-21T06:53:35.774Z,6.80
2019-04-21T06:54:05.343Z,7.08
2019-04-21T06:54:38.349Z,6.67
2019-04-21T06:55:13.846Z,6.67
2019-04-21T06:55:49.829Z,6.72
2019-04-21T06:56:23.612Z,6.30
2019-04-21T06:56:51.628Z,6.30
2019-04-21T06:57:29.217Z,6.62
2019-04-21T06:58:00.745Z,6.72
2019-04-21T06:58:37.255Z,5.92
2019-04-21T06:59:09.400Z,6.53
2019-04-21T06:59:43.136Z,6.62
2019-04-21T07:00:21.105Z,6.67
2019-04-21T07:00:56.275Z,6.60
2019-04-21T07:01:32.221Z,6.25
2019-04-21T07:02:28.643Z,5.70
2019-04-21T07:03:49.261Z,6.25
2019-04-21T07:04:22.303Z,6.53
2019-04-21T07:05:35.812Z,6.15
2019-04-21T07:06:09.438Z,6.90
2019-04-21T07:07:18.943Z,6.80
2019-04-21T07:08:07.582Z,6.87
2019-04-21T07:09:20.394Z,8.18
2019-04-21T07:09:37.277Z,8.08
2019-04-21T07:10:16.594Z,6.05
2019-04-21T07:10:53.303Z,6.62
2019-04-21T07:11:18.937Z,6.95
2019-04-21T07:11:56.690Z,6.33
2019-04-21T07:12:29.033Z,6.70
2019-04-21T07:13:03.930Z,7.05
2019-04-21T07:13:41.622Z,7.15
2019-04-21T07:14:28.073Z,6.80
2019-04-21T07:14:54.761Z,6.67
2019-04-21T07:15:30.835Z,6.62
2019-04-21T07:16:07.188Z,6.72
2019-04-21T07:16:39.121Z,7.40
2019-04-21T07:17:28.400Z,6.80
2019-04-21T07:17:56.656Z,6.60
2019-04-21T07:18:24.649Z,7.87
2019-04-21T07:19:03.978Z,6.80
2019-04-21T07:19:35.210Z,7.58
2019-04-21T07:20:18.982Z,6.35
2019-04-21T07:20:38.375Z,6.42
2019-04-21T07:21:14.107Z,7.55
2019-04-21T07:21:45.573Z,6.53
2019-04-21T07:23:03.222Z,6.60
2019-04-21T07:23:39.947Z,6.17
2019-04-21T07:24:14.241Z,6.85
2019-04-21T07:24:46.199Z,7.08
2019-04-21T07:25:22.505Z,6.50
2019-04-21T07:26:00.389Z,7.03
2019-04-21T07:26:32.679Z,6.92
2019-04-21T07:27:17.631Z,7.35
2019-04-21T07:27:43.070Z,7.20
2019-04-21T07:28:15.498Z,6.83
2019-04-21T07:28:56.889Z,7.25
2019-04-21T07:29:27.168Z,8.08
2019-04-21T07:30:02.536Z,6.45
2019-04-21T07:31:09.945Z,6.92
2019-04-21T07:31:47.644Z,6.87
2019-04-21T07:32:13.978Z,6.97
2019-04-21T07:32:55.345Z,7.00
2019-04-21T07:33:49.263Z,6.78
2019-04-21T07:33:57.581Z,6.40
2019-04-21T07:34:33.447Z,6.22
2019-04-21T07:35:11.629Z,6.87
2019-04-21T07:35:43.328Z,6.05
2019-04-21T07:36:28.905Z,6.25
2019-04-21T07:37:23.934Z,7.15
2019-04-21T07:37:57.963Z,6.70
2019-04-21T07:38:33.178Z,6.58
2019-04-21T07:39:06.230Z,6.50
2019-04-21T07:39:39.109Z,6.30
2019-04-21T07:40:13.484Z,7.58
2019-04-21T07:40:48.396Z,6.70
2019-04-21T07:41:20.012Z,6.55
2019-04-21T07:41:55.826Z,6.25
2019-04-21T07:42:35.678Z,7.22
2019-04-21T07:43:09.034Z,6.92
2019-04-21T07:43:41.317Z,5.67
2019-04-21T07:44:15.640Z,6.08
2019-04-21T07:44:46.265Z,6.70
2019-04-21T07:45:22.431Z,6.78
2019-04-21T07:46:00.105Z,6.75
2019-04-21T07:46:29.021Z,6.33
2019-04-21T07:47:11.822Z,6.22
2019-04-21T07:47:50.823Z,6.95
2019-04-21T07:48:34.162Z,7.22
2019-04-21T07:49:32.931Z,6.90
2019-04-21T07:50:14.822Z,5.95
2019-04-21T07:51:11.053Z,6.37
2019-04-21T07:52:03.116Z,7.33
2019-04-21T07:52:49.018Z,6.35
2019-04-21T07:53:32.244Z,6.42
2019-04-21T07:54:01.850Z,7.28
2019-04-21T07:55:59.511Z,7.72
2019-04-21T07:56:35.078Z,6.70
2019-04-21T07:57:19.047Z,7.30
2019-04-21T07:57:56.232Z,12.73
2019-04-21T07:58:35.392Z,12.45
2019-04-21T07:59:34.225Z,9.18
2019-04-21T07:59:52.403Z,10.65
2019-04-21T08:02:06.495Z,16.17
2019-04-21T08:02:34.030Z,8.00
2019-04-21T08:03:14.125Z,6.75
2019-04-21T08:03:46.113Z,5.83
2019-04-21T08:04:38.284Z,6.92
2019-04-21T08:05:04.152Z,6.90
2019-04-21T08:05:35.310Z,6.75
2019-04-21T08:06:08.434Z,6.65
2019-04-21T08:06:40.548Z,6.37
2019-04-21T08:07:21.618Z,6.25
2019-04-21T08:08:20.762Z,6.72
2019-04-21T08:08:59.427Z,7.15
2019-04-21T08:09:35.694Z,5.85
2019-04-21T08:10:05.483Z,5.65
2019-04-21T08:10:40.795Z,6.08
2019-04-21T08:11:15.242Z,5.92
2019-04-21T08:11:48.697Z,6.33
2019-04-21T08:12:24.111Z,6.00
2019-04-21T08:13:00.190Z,6.05
2019-04-21T08:13:41.589Z,6.08
2019-04-21T08:14:13.797Z,6.40
2019-04-21T08:14:43.920Z,5.85
2019-04-21T08:15:36.511Z,5.95
2019-04-21T08:16:11.025Z,5.33
2019-04-21T08:16:30.527Z,5.70
2019-04-21T08:17:03.092Z,6.30
2019-04-21T08:17:38.321Z,7.10
2019-04-21T08:18:11.703Z,6.35
2019-04-21T08:18:47.272Z,6.72
2019-04-21T08:19:39.879Z,5.83
2019-04-21T08:19:53.163Z,6.10
2019-04-21T08:20:28.614Z,5.78
2019-04-21T08:21:08.585Z,5.53
2019-04-21T08:21:40.480Z,5.97
2019-04-21T08:22:15.718Z,5.30
2019-04-21T08:22:51.822Z,6.42
2019-04-21T08:24:01.547Z,5.55
2019-04-21T08:24:37.583Z,5.30
2019-04-21T08:25:10.281Z,6.35
2019-04-21T08:25:53.003Z,6.25
2019-04-21T08:26:24.285Z,5.87
2019-04-21T08:27:03.306Z,5.22
2019-04-21T08:27:35.142Z,5.03
2019-04-21T08:28:07.296Z,5.65
2019-04-21T08:28:42.744Z,5.50
2019-04-21T08:29:18.911Z,5.72
2019-04-21T08:29:52.158Z,5.30
2019-04-21T08:30:27.423Z,5.67
2019-04-21T08:31:01.878Z,5.40
2019-04-21T08:31:39.251Z,5.80
2019-04-21T08:32:11.947Z,5.45
2019-04-21T08:32:51.547Z,5.08
2019-04-21T08:33:26.219Z,4.30
2019-04-21T08:33:55.748Z,5.80
2019-04-21T08:34:28.353Z,5.08
2019-04-21T08:35:23.494Z,5.17
2019-04-21T08:35:53.064Z,5.22
2019-04-21T08:36:40.501Z,5.50
2019-04-21T08:37:08.775Z,4.87
2019-04-21T08:37:21.572Z,5.20
2019-04-21T08:37:55.409Z,5.50
2019-04-21T08:38:31.288Z,5.15
2019-04-21T08:39:08.774Z,4.62
2019-04-21T08:39:49.405Z,5.30
2019-04-21T08:40:19.338Z,5.45
2019-04-21T08:40:42.442Z,5.55
2019-04-21T08:41:23.019Z,5.10
2019-04-21T08:41:56.198Z,4.97
2019-04-21T08:42:35.288Z,4.72
2019-04-21T08:43:12.219Z,4.78
2019-04-21T08:44:24.331Z,5.85
2019-04-21T08:44:52.725Z,4.85
2019-04-21T08:45:28.237Z,6.37
2019-04-21T08:46:08.434Z,5.30
2019-04-21T08:46:42.688Z,5.33
2019-04-21T08:47:14.086Z,5.80
2019-04-21T08:48:22.846Z,5.30
2019-04-21T08:48:56.763Z,6.30
2019-04-21T08:49:34.893Z,4.78
2019-04-21T08:50:08.041Z,4.70
2019-04-21T08:50:36.353Z,5.65
2019-04-21T08:51:54.926Z,5.85
2019-04-21T08:52:44.361Z,5.12
2019-04-21T08:53:34.004Z,5.05
2019-04-21T08:54:09.323Z,5.83
2019-04-21T08:54:45.301Z,6.80
2019-04-21T08:55:45.496Z,7.65
2019-04-21T08:56:31.976Z,5.20
2019-04-21T08:57:21.697Z,4.95
2019-04-21T08:58:14.157Z,5.03
2019-04-21T08:59:21.948Z,4.90
2019-04-21T08:59:58.853Z,5.75
2019-04-21T09:00:55.128Z,5.22
2019-04-21T09:01:42.949Z,5.15
2019-04-21T09:02:23.319Z,4.80
2019-04-21T09:03:06.472Z,5.00
2019-04-21T09:04:17.118Z,4.65
2019-04-21T09:04:41.218Z,4.60
2019-04-21T09:05:18.345Z,5.53
2019-04-21T09:05:52.606Z,4.60
2019-04-21T09:06:40.239Z,5.40
2019-04-21T09:07:20.014Z,4.80
2019-04-21T09:07:39.106Z,5.28
2019-04-21T09:08:10.720Z,5.08
2019-04-21T09:08:46.177Z,4.83
2019-04-21T09:09:27.882Z,5.47
2019-04-21T09:09:52.813Z,6.00
2019-04-21T09:10:28.110Z,5.15
2019-04-21T09:10:59.535Z,5.62
2019-04-21T09:11:34.871Z,5.25
2019-04-21T09:12:10.597Z,5.10
2019-04-21T09:12:48.038Z,5.25